KESC

Delta County Airport

Escanaba, Michigan, USA

KESC 110856Z AUTO 00000KT 10SM BKN031 M14/M16 A3000 RMK AO2 SLP185 T11441161 58013 FZRANO

Observed Flight Rules
Dec-11 @ 08:56 UTC (37 minutes ago) Visual Flight Rules
Wind Visibility Clouds
Calm 10 miles
  • Broken at 3,100' AGL
Temperatures Readings
Current -14°C / 7°F
Dewpoint -16°C / 3°F
Humidity 85%
Altimeter 30" Hg
Pressure 1018.5 hPa
Elevation 187
Observed Flight Rules
Dec-11 @ 08:56 UTC
(37 minutes ago)
VFR
Wind Visibility
Calm 10 miles
Clouds
  • Broken at 3,100' AGL
Temperature Dewpoint
-14°C / 7°F -16°C / 3°F
Humidity Altimeter Pressure
85% 30" Hg 1018.5 hPa